sensor_id;sensor_type;location;lat;lon;timestamp;P1;durP1;ratioP1;P2;durP2;ratioP2
22826;SDS011;11580;52.562;13.418;2023-08-21T00:01:44;10.13;;;9.43;;
22826;SDS011;11580;52.562;13.418;2023-08-21T00:04:11;11.23;;;10.40;;
22826;SDS011;11580;52.562;13.418;2023-08-21T00:06:40;10.83;;;10.03;;
22826;SDS011;11580;52.562;13.418;2023-08-21T00:09:07;10.10;;;9.30;;
22826;SDS011;11580;52.562;13.418;2023-08-21T00:11:34;11.80;;;10.03;;
22826;SDS011;11580;52.562;13.418;2023-08-21T00:14:01;11.03;;;10.03;;
22826;SDS011;11580;52.562;13.418;2023-08-21T00:16:28;11.40;;;10.30;;
22826;SDS011;11580;52.562;13.418;2023-08-21T00:18:56;10.50;;;9.70;;
22826;SDS011;11580;52.562;13.418;2023-08-21T00:21:23;10.47;;;9.63;;
22826;SDS011;11580;52.562;13.418;2023-08-21T00:23:51;11.23;;;10.43;;
22826;SDS011;11580;52.562;13.418;2023-08-21T00:26:19;10.50;;;9.67;;
22826;SDS011;11580;52.562;13.418;2023-08-21T00:28:46;11.67;;;10.67;;
22826;SDS011;11580;52.562;13.418;2023-08-21T00:31:13;11.00;;;10.10;;
22826;SDS011;11580;52.562;13.418;2023-08-21T00:33:40;10.60;;;9.87;;
22826;SDS011;11580;52.562;13.418;2023-08-21T00:36:07;10.73;;;9.83;;
22826;SDS011;11580;52.562;13.418;2023-08-21T00:38:35;10.47;;;9.67;;
22826;SDS011;11580;52.562;13.418;2023-08-21T00:41:04;10.83;;;9.97;;
22826;SDS011;11580;52.562;13.418;2023-08-21T00:43:31;12.07;;;11.03;;
22826;SDS011;11580;52.562;13.418;2023-08-21T00:45:58;11.13;;;10.33;;
22826;SDS011;11580;52.562;13.418;2023-08-21T00:48:26;10.37;;;9.67;;
22826;SDS011;11580;52.562;13.418;2023-08-21T00:50:53;11.33;;;10.43;;
22826;SDS011;11580;52.562;13.418;2023-08-21T00:53:21;10.17;;;9.47;;
22826;SDS011;11580;52.562;13.418;2023-08-21T00:55:49;11.80;;;10.90;;
22826;SDS011;11580;52.562;13.418;2023-08-21T00:58:18;10.80;;;9.93;;
22826;SDS011;11580;52.562;13.418;2023-08-21T01:00:45;10.83;;;10.03;;
22826;SDS011;11580;52.562;13.418;2023-08-21T01:03:16;11.03;;;10.13;;
22826;SDS011;11580;52.562;13.418;2023-08-21T01:05:43;11.60;;;10.73;;
22826;SDS011;11580;52.562;13.418;2023-08-21T01:08:12;11.60;;;10.80;;
22826;SDS011;11580;52.562;13.418;2023-08-21T01:10:50;11.10;;;10.30;;
22826;SDS011;11580;52.562;13.418;2023-08-21T01:13:27;10.30;;;9.60;;
22826;SDS011;11580;52.562;13.418;2023-08-21T01:16:10;10.97;;;10.13;;
22826;SDS011;11580;52.562;13.418;2023-08-21T01:18:40;9.40;;;8.70;;
22826;SDS011;11580;52.562;13.418;2023-08-21T01:21:11;10.20;;;9.40;;
22826;SDS011;11580;52.562;13.418;2023-08-21T01:24:00;11.20;;;10.37;;
22826;SDS011;11580;52.562;13.418;2023-08-21T01:26:27;10.97;;;10.17;;
22826;SDS011;11580;52.562;13.418;2023-08-21T01:28:54;10.60;;;9.73;;
22826;SDS011;11580;52.562;13.418;2023-08-21T01:31:24;12.23;;;10.77;;
22826;SDS011;11580;52.562;13.418;2023-08-21T01:33:59;10.37;;;9.57;;
22826;SDS011;11580;52.562;13.418;2023-08-21T01:36:30;10.50;;;9.70;;
22826;SDS011;11580;52.562;13.418;2023-08-21T01:38:58;11.03;;;10.23;;
22826;SDS011;11580;52.562;13.418;2023-08-21T01:41:28;11.57;;;10.60;;
22826;SDS011;11580;52.562;13.418;2023-08-21T01:43:55;11.03;;;10.13;;
22826;SDS011;11580;52.562;13.418;2023-08-21T01:46:22;11.07;;;10.17;;
22826;SDS011;11580;52.562;13.418;2023-08-21T01:48:49;12.43;;;9.53;;
22826;SDS011;11580;52.562;13.418;2023-08-21T01:51:16;10.10;;;9.40;;
22826;SDS011;11580;52.562;13.418;2023-08-21T01:53:43;10.57;;;9.77;;
22826;SDS011;11580;52.562;13.418;2023-08-21T01:56:12;10.57;;;9.67;;
22826;SDS011;11580;52.562;13.418;2023-08-21T01:58:39;10.60;;;9.90;;
22826;SDS011;11580;52.562;13.418;2023-08-21T02:01:06;11.10;;;10.20;;
22826;SDS011;11580;52.562;13.418;2023-08-21T02:03:33;10.47;;;9.57;;
22826;SDS011;11580;52.562;13.418;2023-08-21T02:06:01;10.37;;;9.47;;
22826;SDS011;11580;52.562;13.418;2023-08-21T02:08:32;10.27;;;9.30;;
22826;SDS011;11580;52.562;13.418;2023-08-21T02:11:00;9.00;;;8.30;;
22826;SDS011;11580;52.562;13.418;2023-08-21T02:13:29;9.10;;;8.30;;
22826;SDS011;11580;52.562;13.418;2023-08-21T02:15:58;9.27;;;8.57;;
22826;SDS011;11580;52.562;13.418;2023-08-21T02:18:25;9.60;;;8.80;;
22826;SDS011;11580;52.562;13.418;2023-08-21T02:20:52;9.43;;;8.63;;
22826;SDS011;11580;52.562;13.418;2023-08-21T02:23:19;9.67;;;8.93;;
22826;SDS011;11580;52.562;13.418;2023-08-21T02:25:47;9.43;;;8.63;;
22826;SDS011;11580;52.562;13.418;2023-08-21T02:28:16;8.17;;;7.57;;
22826;SDS011;11580;52.562;13.418;2023-08-21T02:30:48;9.77;;;8.97;;
22826;SDS011;11580;52.562;13.418;2023-08-21T02:33:15;9.20;;;8.60;;
22826;SDS011;11580;52.562;13.418;2023-08-21T02:35:43;10.60;;;9.80;;
22826;SDS011;11580;52.562;13.418;2023-08-21T02:38:10;8.23;;;7.63;;
22826;SDS011;11580;52.562;13.418;2023-08-21T02:40:37;8.37;;;7.70;;
22826;SDS011;11580;52.562;13.418;2023-08-21T02:43:04;9.43;;;8.73;;
22826;SDS011;11580;52.562;13.418;2023-08-21T02:45:31;8.70;;;8.10;;
22826;SDS011;11580;52.562;13.418;2023-08-21T02:48:00;8.40;;;7.60;;
22826;SDS011;11580;52.562;13.418;2023-08-21T02:50:27;8.50;;;7.83;;
22826;SDS011;11580;52.562;13.418;2023-08-21T02:52:54;8.00;;;7.40;;
22826;SDS011;11580;52.562;13.418;2023-08-21T02:55:22;7.80;;;7.20;;
22826;SDS011;11580;52.562;13.418;2023-08-21T02:57:49;8.27;;;7.67;;
22826;SDS011;11580;52.562;13.418;2023-08-21T03:00:16;7.37;;;6.77;;
22826;SDS011;11580;52.562;13.418;2023-08-21T03:02:45;7.83;;;7.13;;
22826;SDS011;11580;52.562;13.418;2023-08-21T03:05:13;8.57;;;7.77;;
22826;SDS011;11580;52.562;13.418;2023-08-21T03:07:41;7.93;;;7.30;;
22826;SDS011;11580;52.562;13.418;2023-08-21T03:10:08;8.10;;;7.47;;
22826;SDS011;11580;52.562;13.418;2023-08-21T03:12:36;8.30;;;7.50;;
22826;SDS011;11580;52.562;13.418;2023-08-21T03:15:03;8.67;;;7.93;;
22826;SDS011;11580;52.562;13.418;2023-08-21T03:17:31;8.20;;;7.60;;
22826;SDS011;11580;52.562;13.418;2023-08-21T03:19:59;8.67;;;8.00;;
22826;SDS011;11580;52.562;13.418;2023-08-21T03:22:27;8.40;;;7.80;;
22826;SDS011;11580;52.562;13.418;2023-08-21T03:24:56;7.47;;;6.90;;
22826;SDS011;11580;52.562;13.418;2023-08-21T03:27:24;8.70;;;8.00;;
22826;SDS011;11580;52.562;13.418;2023-08-21T03:29:51;8.03;;;7.43;;
22826;SDS011;11580;52.562;13.418;2023-08-21T03:32:18;8.60;;;7.80;;
22826;SDS011;11580;52.562;13.418;2023-08-21T03:34:46;8.10;;;7.40;;
22826;SDS011;11580;52.562;13.418;2023-08-21T03:37:13;7.83;;;7.23;;
22826;SDS011;11580;52.562;13.418;2023-08-21T03:39:42;7.83;;;7.33;;
22826;SDS011;11580;52.562;13.418;2023-08-21T03:42:10;7.70;;;7.20;;
22826;SDS011;11580;52.562;13.418;2023-08-21T03:44:39;7.73;;;7.03;;
22826;SDS011;11580;52.562;13.418;2023-08-21T03:47:06;7.73;;;7.13;;
22826;SDS011;11580;52.562;13.418;2023-08-21T03:49:42;7.40;;;6.70;;
22826;SDS011;11580;52.562;13.418;2023-08-21T03:52:09;8.17;;;7.47;;
22826;SDS011;11580;52.562;13.418;2023-08-21T03:54:37;9.07;;;8.30;;
22826;SDS011;11580;52.562;13.418;2023-08-21T03:57:05;8.60;;;7.90;;
22826;SDS011;11580;52.562;13.418;2023-08-21T03:59:32;7.87;;;7.27;;
22826;SDS011;11580;52.562;13.418;2023-08-21T04:02:00;7.70;;;7.00;;
22826;SDS011;11580;52.562;13.418;2023-08-21T04:04:27;7.47;;;6.77;;
22826;SDS011;11580;52.562;13.418;2023-08-21T04:06:54;8.10;;;7.50;;
22826;SDS011;11580;52.562;13.418;2023-08-21T04:09:21;9.47;;;8.67;;
22826;SDS011;11580;52.562;13.418;2023-08-21T04:11:49;7.87;;;7.37;;
22826;SDS011;11580;52.562;13.418;2023-08-21T04:14:18;8.23;;;7.63;;
22826;SDS011;11580;52.562;13.418;2023-08-21T04:16:45;8.30;;;7.60;;
22826;SDS011;11580;52.562;13.418;2023-08-21T04:19:12;7.97;;;7.40;;
22826;SDS011;11580;52.562;13.418;2023-08-21T04:21:39;9.10;;;8.40;;
22826;SDS011;11580;52.562;13.418;2023-08-21T04:24:06;8.93;;;8.20;;
22826;SDS011;11580;52.562;13.418;2023-08-21T04:26:33;8.47;;;7.90;;
22826;SDS011;11580;52.562;13.418;2023-08-21T04:29:01;8.20;;;7.57;;
22826;SDS011;11580;52.562;13.418;2023-08-21T04:31:30;8.20;;;7.47;;
22826;SDS011;11580;52.562;13.418;2023-08-21T04:33:58;8.47;;;7.87;;
22826;SDS011;11580;52.562;13.418;2023-08-21T04:36:26;8.13;;;7.53;;
22826;SDS011;11580;52.562;13.418;2023-08-21T04:38:53;8.57;;;7.97;;
22826;SDS011;11580;52.562;13.418;2023-08-21T04:41:21;8.53;;;7.93;;
22826;SDS011;11580;52.562;13.418;2023-08-21T04:43:48;8.30;;;7.70;;
22826;SDS011;11580;52.562;13.418;2023-08-21T04:46:16;8.33;;;7.63;;
22826;SDS011;11580;52.562;13.418;2023-08-21T04:48:46;8.23;;;7.63;;
22826;SDS011;11580;52.562;13.418;2023-08-21T04:51:13;8.47;;;7.73;;
22826;SDS011;11580;52.562;13.418;2023-08-21T04:53:41;7.50;;;7.00;;
22826;SDS011;11580;52.562;13.418;2023-08-21T04:56:12;8.10;;;7.50;;
22826;SDS011;11580;52.562;13.418;2023-08-21T04:58:40;8.10;;;7.50;;
22826;SDS011;11580;52.562;13.418;2023-08-21T05:01:08;8.13;;;7.53;;
22826;SDS011;11580;52.562;13.418;2023-08-21T05:03:41;7.70;;;7.20;;
22826;SDS011;11580;52.562;13.418;2023-08-21T05:06:10;8.57;;;7.77;;
22826;SDS011;11580;52.562;13.418;2023-08-21T05:08:37;7.70;;;6.83;;
22826;SDS011;11580;52.562;13.418;2023-08-21T05:11:06;8.60;;;7.87;;
22826;SDS011;11580;52.562;13.418;2023-08-21T05:13:36;8.57;;;7.93;;
22826;SDS011;11580;52.562;13.418;2023-08-21T05:16:06;8.30;;;7.60;;
22826;SDS011;11580;52.562;13.418;2023-08-21T05:18:36;8.50;;;7.90;;
22826;SDS011;11580;52.562;13.418;2023-08-21T05:21:03;9.00;;;8.30;;
22826;SDS011;11580;52.562;13.418;2023-08-21T05:23:32;10.60;;;9.87;;
22826;SDS011;11580;52.562;13.418;2023-08-21T05:26:03;9.57;;;8.67;;
22826;SDS011;11580;52.562;13.418;2023-08-21T05:28:31;9.73;;;9.00;;
22826;SDS011;11580;52.562;13.418;2023-08-21T05:30:58;9.10;;;8.40;;
22826;SDS011;11580;52.562;13.418;2023-08-21T05:33:30;9.07;;;8.27;;
22826;SDS011;11580;52.562;13.418;2023-08-21T05:35:57;9.27;;;8.37;;
22826;SDS011;11580;52.562;13.418;2023-08-21T05:38:25;9.37;;;8.77;;
22826;SDS011;11580;52.562;13.418;2023-08-21T05:40:53;10.53;;;9.73;;
22826;SDS011;11580;52.562;13.418;2023-08-21T05:43:20;9.83;;;9.07;;
22826;SDS011;11580;52.562;13.418;2023-08-21T05:45:47;9.27;;;8.67;;
22826;SDS011;11580;52.562;13.418;2023-08-21T05:48:15;8.37;;;7.77;;
22826;SDS011;11580;52.562;13.418;2023-08-21T05:50:43;9.60;;;8.60;;
22826;SDS011;11580;52.562;13.418;2023-08-21T05:53:10;9.10;;;8.50;;
22826;SDS011;11580;52.562;13.418;2023-08-21T05:55:37;8.73;;;8.03;;
22826;SDS011;11580;52.562;13.418;2023-08-21T05:58:06;8.27;;;7.53;;
22826;SDS011;11580;52.562;13.418;2023-08-21T06:00:33;8.90;;;8.30;;
22826;SDS011;11580;52.562;13.418;2023-08-21T06:03:02;9.70;;;8.90;;
22826;SDS011;11580;52.562;13.418;2023-08-21T06:05:49;9.73;;;8.83;;
22826;SDS011;11580;52.562;13.418;2023-08-21T06:08:16;7.87;;;7.37;;
22826;SDS011;11580;52.562;13.418;2023-08-21T06:10:43;9.80;;;9.00;;
22826;SDS011;11580;52.562;13.418;2023-08-21T06:13:11;9.37;;;8.77;;
22826;SDS011;11580;52.562;13.418;2023-08-21T06:15:39;9.23;;;8.43;;
22826;SDS011;11580;52.562;13.418;2023-08-21T06:18:10;8.60;;;7.90;;
22826;SDS011;11580;52.562;13.418;2023-08-21T06:20:37;9.70;;;9.10;;
22826;SDS011;11580;52.562;13.418;2023-08-21T06:23:05;9.40;;;8.47;;
22826;SDS011;11580;52.562;13.418;2023-08-21T06:25:32;9.50;;;8.80;;
22826;SDS011;11580;52.562;13.418;2023-08-21T06:27:59;8.90;;;8.40;;
22826;SDS011;11580;52.562;13.418;2023-08-21T06:30:28;10.80;;;9.83;;
22826;SDS011;11580;52.562;13.418;2023-08-21T06:32:55;9.07;;;8.37;;
22826;SDS011;11580;52.562;13.418;2023-08-21T06:35:24;9.07;;;8.47;;
22826;SDS011;11580;52.562;13.418;2023-08-21T06:37:52;9.63;;;8.93;;
22826;SDS011;11580;52.562;13.418;2023-08-21T06:40:20;9.90;;;9.20;;
22826;SDS011;11580;52.562;13.418;2023-08-21T06:42:48;9.83;;;9.03;;
22826;SDS011;11580;52.562;13.418;2023-08-21T06:45:19;9.37;;;8.77;;
22826;SDS011;11580;52.562;13.418;2023-08-21T06:47:48;9.87;;;9.00;;
22826;SDS011;11580;52.562;13.418;2023-08-21T06:50:16;9.73;;;9.03;;
22826;SDS011;11580;52.562;13.418;2023-08-21T06:52:43;9.93;;;9.20;;
22826;SDS011;11580;52.562;13.418;2023-08-21T06:55:10;9.83;;;9.13;;
22826;SDS011;11580;52.562;13.418;2023-08-21T06:57:37;9.50;;;8.70;;
22826;SDS011;11580;52.562;13.418;2023-08-21T07:00:05;10.10;;;9.10;;
22826;SDS011;11580;52.562;13.418;2023-08-21T07:02:34;8.47;;;7.87;;
22826;SDS011;11580;52.562;13.418;2023-08-21T07:05:03;10.33;;;9.53;;
22826;SDS011;11580;52.562;13.418;2023-08-21T07:07:30;9.20;;;8.50;;
22826;SDS011;11580;52.562;13.418;2023-08-21T07:09:58;7.90;;;7.37;;
22826;SDS011;11580;52.562;13.418;2023-08-21T07:12:25;9.97;;;9.13;;
22826;SDS011;11580;52.562;13.418;2023-08-21T07:14:52;8.50;;;7.90;;
22826;SDS011;11580;52.562;13.418;2023-08-21T07:17:19;8.43;;;7.73;;
22826;SDS011;11580;52.562;13.418;2023-08-21T07:19:46;8.00;;;7.50;;
22826;SDS011;11580;52.562;13.418;2023-08-21T07:22:19;7.00;;;6.50;;
22826;SDS011;11580;52.562;13.418;2023-08-21T07:24:46;7.00;;;6.40;;
22826;SDS011;11580;52.562;13.418;2023-08-21T07:27:14;7.10;;;6.60;;
22826;SDS011;11580;52.562;13.418;2023-08-21T07:29:41;7.40;;;6.70;;
22826;SDS011;11580;52.562;13.418;2023-08-21T07:32:08;7.20;;;6.70;;
22826;SDS011;11580;52.562;13.418;2023-08-21T07:34:35;7.70;;;7.20;;
22826;SDS011;11580;52.562;13.418;2023-08-21T07:37:02;7.63;;;7.03;;
22826;SDS011;11580;52.562;13.418;2023-08-21T07:39:31;9.37;;;8.50;;
22826;SDS011;11580;52.562;13.418;2023-08-21T07:41:58;8.87;;;8.17;;
22826;SDS011;11580;52.562;13.418;2023-08-21T07:44:26;7.37;;;6.77;;
22826;SDS011;11580;52.562;13.418;2023-08-21T07:46:53;6.40;;;6.00;;
22826;SDS011;11580;52.562;13.418;2023-08-21T07:49:20;7.13;;;6.63;;
22826;SDS011;11580;52.562;13.418;2023-08-21T07:51:47;7.13;;;6.63;;
22826;SDS011;11580;52.562;13.418;2023-08-21T07:54:14;7.03;;;6.53;;
22826;SDS011;11580;52.562;13.418;2023-08-21T07:56:43;5.23;;;4.90;;
22826;SDS011;11580;52.562;13.418;2023-08-21T07:59:10;5.30;;;4.90;;
22826;SDS011;11580;52.562;13.418;2023-08-21T08:01:37;4.83;;;4.40;;
22826;SDS011;11580;52.562;13.418;2023-08-21T08:04:05;5.40;;;5.00;;
22826;SDS011;11580;52.562;13.418;2023-08-21T08:06:32;5.37;;;4.97;;
22826;SDS011;11580;52.562;13.418;2023-08-21T08:08:59;5.10;;;4.70;;
22826;SDS011;11580;52.562;13.418;2023-08-21T08:11:28;7.80;;;6.47;;
22826;SDS011;11580;52.562;13.418;2023-08-21T08:13:57;4.90;;;4.50;;
22826;SDS011;11580;52.562;13.418;2023-08-21T08:16:24;4.50;;;4.20;;
22826;SDS011;11580;52.562;13.418;2023-08-21T08:18:51;4.70;;;4.37;;
22826;SDS011;11580;52.562;13.418;2023-08-21T08:21:19;3.60;;;3.40;;
22826;SDS011;11580;52.562;13.418;2023-08-21T08:23:46;3.70;;;3.40;;
22826;SDS011;11580;52.562;13.418;2023-08-21T08:26:13;3.93;;;3.63;;
22826;SDS011;11580;52.562;13.418;2023-08-21T08:28:41;4.80;;;3.03;;
22826;SDS011;11580;52.562;13.418;2023-08-21T08:31:15;3.50;;;3.10;;
22826;SDS011;11580;52.562;13.418;2023-08-21T08:33:42;3.27;;;2.97;;
22826;SDS011;11580;52.562;13.418;2023-08-21T08:36:10;3.03;;;2.70;;
22826;SDS011;11580;52.562;13.418;2023-08-21T08:38:37;2.30;;;2.10;;
22826;SDS011;11580;52.562;13.418;2023-08-21T08:41:05;2.80;;;2.60;;
22826;SDS011;11580;52.562;13.418;2023-08-21T08:43:43;3.73;;;2.60;;
22826;SDS011;11580;52.562;13.418;2023-08-21T08:46:12;2.40;;;2.27;;
22826;SDS011;11580;52.562;13.418;2023-08-21T08:48:41;2.50;;;2.30;;
22826;SDS011;11580;52.562;13.418;2023-08-21T08:51:08;2.07;;;1.97;;
22826;SDS011;11580;52.562;13.418;2023-08-21T08:53:38;1.73;;;1.63;;
22826;SDS011;11580;52.562;13.418;2023-08-21T08:56:06;2.40;;;2.10;;
22826;SDS011;11580;52.562;13.418;2023-08-21T08:58:33;2.60;;;2.30;;
22826;SDS011;11580;52.562;13.418;2023-08-21T09:01:00;2.23;;;2.03;;
22826;SDS011;11580;52.562;13.418;2023-08-21T09:03:29;2.40;;;2.20;;
22826;SDS011;11580;52.562;13.418;2023-08-21T09:05:56;2.67;;;2.47;;
22826;SDS011;11580;52.562;13.418;2023-08-21T09:08:25;2.10;;;1.73;;
22826;SDS011;11580;52.562;13.418;2023-08-21T09:10:52;2.03;;;1.90;;
22826;SDS011;11580;52.562;13.418;2023-08-21T09:13:20;1.80;;;1.70;;
22826;SDS011;11580;52.562;13.418;2023-08-21T09:15:48;2.23;;;1.67;;
22826;SDS011;11580;52.562;13.418;2023-08-21T09:18:21;2.00;;;1.33;;
22826;SDS011;11580;52.562;13.418;2023-08-21T09:20:50;1.60;;;1.50;;
22826;SDS011;11580;52.562;13.418;2023-08-21T09:23:18;1.77;;;1.47;;
22826;SDS011;11580;52.562;13.418;2023-08-21T09:25:46;1.70;;;1.60;;
22826;SDS011;11580;52.562;13.418;2023-08-21T09:28:14;3.63;;;1.80;;
22826;SDS011;11580;52.562;13.418;2023-08-21T09:30:47;2.33;;;1.80;;
22826;SDS011;11580;52.562;13.418;2023-08-21T09:33:19;1.70;;;1.50;;
22826;SDS011;11580;52.562;13.418;2023-08-21T09:35:48;1.70;;;1.60;;
22826;SDS011;11580;52.562;13.418;2023-08-21T09:38:18;1.67;;;1.57;;
22826;SDS011;11580;52.562;13.418;2023-08-21T09:40:49;1.80;;;1.70;;
22826;SDS011;11580;52.562;13.418;2023-08-21T09:43:18;2.37;;;1.43;;
22826;SDS011;11580;52.562;13.418;2023-08-21T09:45:46;3.00;;;1.70;;
22826;SDS011;11580;52.562;13.418;2023-08-21T09:48:14;1.83;;;1.47;;
22826;SDS011;11580;52.562;13.418;2023-08-21T09:50:42;1.77;;;1.67;;
22826;SDS011;11580;52.562;13.418;2023-08-21T09:53:12;2.53;;;1.70;;
22826;SDS011;11580;52.562;13.418;2023-08-21T09:55:39;1.70;;;1.60;;
22826;SDS011;11580;52.562;13.418;2023-08-21T09:58:08;3.03;;;1.63;;
22826;SDS011;11580;52.562;13.418;2023-08-21T10:00:36;1.90;;;1.63;;
22826;SDS011;11580;52.562;13.418;2023-08-21T10:03:05;3.93;;;1.63;;
22826;SDS011;11580;52.562;13.418;2023-08-21T10:05:37;1.70;;;1.50;;
22826;SDS011;11580;52.562;13.418;2023-08-21T10:08:07;2.17;;;1.83;;
22826;SDS011;11580;52.562;13.418;2023-08-21T10:10:37;3.17;;;2.17;;
22826;SDS011;11580;52.562;13.418;2023-08-21T10:13:05;1.90;;;1.80;;
22826;SDS011;11580;52.562;13.418;2023-08-21T10:15:34;1.97;;;1.70;;
22826;SDS011;11580;52.562;13.418;2023-08-21T10:18:20;2.80;;;1.73;;
22826;SDS011;11580;52.562;13.418;2023-08-21T10:20:49;3.20;;;2.00;;
22826;SDS011;11580;52.562;13.418;2023-08-21T10:23:24;2.03;;;1.60;;
22826;SDS011;11580;52.562;13.418;2023-08-21T10:25:55;2.20;;;1.83;;
22826;SDS011;11580;52.562;13.418;2023-08-21T10:28:23;1.90;;;1.70;;
22826;SDS011;11580;52.562;13.418;2023-08-21T10:30:51;2.10;;;1.90;;
22826;SDS011;11580;52.562;13.418;2023-08-21T10:33:18;2.33;;;2.17;;
22826;SDS011;11580;52.562;13.418;2023-08-21T10:36:12;2.60;;;1.73;;
22826;SDS011;11580;52.562;13.418;2023-08-21T10:41:29;2.80;;;1.80;;
22826;SDS011;11580;52.562;13.418;2023-08-21T10:43:56;2.37;;;1.90;;
22826;SDS011;11580;52.562;13.418;2023-08-21T10:46:25;1.90;;;1.70;;
22826;SDS011;11580;52.562;13.418;2023-08-21T10:48:53;2.13;;;1.80;;
22826;SDS011;11580;52.562;13.418;2023-08-21T10:51:20;1.73;;;1.57;;
22826;SDS011;11580;52.562;13.418;2023-08-21T10:53:47;2.27;;;1.70;;
22826;SDS011;11580;52.562;13.418;2023-08-21T10:56:14;2.87;;;1.80;;
22826;SDS011;11580;52.562;13.418;2023-08-21T10:58:43;1.80;;;1.70;;
22826;SDS011;11580;52.562;13.418;2023-08-21T11:01:12;2.30;;;2.07;;
22826;SDS011;11580;52.562;13.418;2023-08-21T11:03:40;1.63;;;1.53;;
22826;SDS011;11580;52.562;13.418;2023-08-21T11:06:12;1.63;;;1.53;;
22826;SDS011;11580;52.562;13.418;2023-08-21T11:08:40;2.90;;;1.70;;
22826;SDS011;11580;52.562;13.418;2023-08-21T11:11:07;2.13;;;1.93;;
22826;SDS011;11580;52.562;13.418;2023-08-21T11:13:36;1.80;;;1.70;;
22826;SDS011;11580;52.562;13.418;2023-08-21T11:16:05;3.07;;;1.90;;
22826;SDS011;11580;52.562;13.418;2023-08-21T11:18:34;3.13;;;2.07;;
22826;SDS011;11580;52.562;13.418;2023-08-21T11:21:03;2.07;;;1.93;;
22826;SDS011;11580;52.562;13.418;2023-08-21T11:23:33;1.80;;;1.70;;
22826;SDS011;11580;52.562;13.418;2023-08-21T11:26:02;1.70;;;1.60;;
22826;SDS011;11580;52.562;13.418;2023-08-21T11:28:31;1.90;;;1.73;;
22826;SDS011;11580;52.562;13.418;2023-08-21T11:30:58;2.00;;;1.80;;
22826;SDS011;11580;52.562;13.418;2023-08-21T11:33:27;4.73;;;2.40;;
22826;SDS011;11580;52.562;13.418;2023-08-21T11:35:55;1.73;;;1.57;;
22826;SDS011;11580;52.562;13.418;2023-08-21T11:38:24;2.20;;;1.70;;
22826;SDS011;11580;52.562;13.418;2023-08-21T11:40:54;2.30;;;1.83;;
22826;SDS011;11580;52.562;13.418;2023-08-21T11:43:24;1.83;;;1.70;;
22826;SDS011;11580;52.562;13.418;2023-08-21T11:46:02;2.73;;;1.57;;
22826;SDS011;11580;52.562;13.418;2023-08-21T11:48:31;1.70;;;1.60;;
22826;SDS011;11580;52.562;13.418;2023-08-21T11:51:00;2.00;;;1.80;;
22826;SDS011;11580;52.562;13.418;2023-08-21T11:53:31;2.17;;;1.60;;
22826;SDS011;11580;52.562;13.418;2023-08-21T11:56:00;4.23;;;1.87;;
22826;SDS011;11580;52.562;13.418;2023-08-21T11:58:27;2.57;;;1.90;;
22826;SDS011;11580;52.562;13.418;2023-08-21T12:01:01;2.87;;;1.60;;
22826;SDS011;11580;52.562;13.418;2023-08-21T12:03:30;2.60;;;1.40;;
22826;SDS011;11580;52.562;13.418;2023-08-21T12:06:04;1.50;;;1.40;;
22826;SDS011;11580;52.562;13.418;2023-08-21T12:08:32;1.40;;;1.30;;
22826;SDS011;11580;52.562;13.418;2023-08-21T12:10:59;1.50;;;1.40;;
22826;SDS011;11580;52.562;13.418;2023-08-21T12:13:27;1.63;;;1.53;;
22826;SDS011;11580;52.562;13.418;2023-08-21T12:15:54;1.70;;;1.50;;
22826;SDS011;11580;52.562;13.418;2023-08-21T12:18:22;1.63;;;1.53;;
22826;SDS011;11580;52.562;13.418;2023-08-21T12:20:51;1.30;;;1.20;;
22826;SDS011;11580;52.562;13.418;2023-08-21T12:23:18;1.97;;;1.50;;
22826;SDS011;11580;52.562;13.418;2023-08-21T12:25:45;2.67;;;1.90;;
22826;SDS011;11580;52.562;13.418;2023-08-21T12:28:12;2.23;;;2.03;;
22826;SDS011;11580;52.562;13.418;2023-08-21T12:30:39;1.63;;;1.53;;
22826;SDS011;11580;52.562;13.418;2023-08-21T12:33:06;2.13;;;2.03;;
22826;SDS011;11580;52.562;13.418;2023-08-21T12:35:34;1.83;;;1.50;;
22826;SDS011;11580;52.562;13.418;2023-08-21T12:38:09;2.10;;;1.80;;
22826;SDS011;11580;52.562;13.418;2023-08-21T12:40:38;1.63;;;1.47;;
22826;SDS011;11580;52.562;13.418;2023-08-21T12:43:05;1.63;;;1.53;;
22826;SDS011;11580;52.562;13.418;2023-08-21T12:45:32;2.60;;;1.67;;
22826;SDS011;11580;52.562;13.418;2023-08-21T12:48:00;2.70;;;1.80;;
22826;SDS011;11580;52.562;13.418;2023-08-21T12:50:29;4.60;;;1.93;;
22826;SDS011;11580;52.562;13.418;2023-08-21T12:52:56;1.70;;;1.60;;
22826;SDS011;11580;52.562;13.418;2023-08-21T12:55:24;3.47;;;2.20;;
22826;SDS011;11580;52.562;13.418;2023-08-21T12:57:52;1.77;;;1.67;;
22826;SDS011;11580;52.562;13.418;2023-08-21T13:00:19;3.17;;;1.97;;
22826;SDS011;11580;52.562;13.418;2023-08-21T13:02:46;4.60;;;1.50;;
22826;SDS011;11580;52.562;13.418;2023-08-21T13:05:14;1.83;;;1.60;;
22826;SDS011;11580;52.562;13.418;2023-08-21T13:07:41;1.67;;;1.40;;
22826;SDS011;11580;52.562;13.418;2023-08-21T13:10:08;2.80;;;1.50;;
22826;SDS011;11580;52.562;13.418;2023-08-21T13:12:37;1.37;;;1.27;;
22826;SDS011;11580;52.562;13.418;2023-08-21T13:15:05;2.00;;;1.43;;
22826;SDS011;11580;52.562;13.418;2023-08-21T13:17:33;2.97;;;1.50;;
22826;SDS011;11580;52.562;13.418;2023-08-21T13:20:00;2.03;;;1.20;;
22826;SDS011;11580;52.562;13.418;2023-08-21T13:22:27;3.57;;;2.00;;
22826;SDS011;11580;52.562;13.418;2023-08-21T13:24:54;1.90;;;1.70;;
22826;SDS011;11580;52.562;13.418;2023-08-21T13:27:22;3.23;;;1.70;;
22826;SDS011;11580;52.562;13.418;2023-08-21T13:29:50;3.50;;;1.50;;
22826;SDS011;11580;52.562;13.418;2023-08-21T13:32:17;2.40;;;1.40;;
22826;SDS011;11580;52.562;13.418;2023-08-21T13:34:44;2.37;;;1.90;;
22826;SDS011;11580;52.562;13.418;2023-08-21T13:37:11;2.50;;;1.90;;
22826;SDS011;11580;52.562;13.418;2023-08-21T13:39:39;2.00;;;1.50;;
22826;SDS011;11580;52.562;13.418;2023-08-21T13:42:06;2.40;;;1.57;;
22826;SDS011;11580;52.562;13.418;2023-08-21T13:44:33;1.60;;;1.50;;
22826;SDS011;11580;52.562;13.418;2023-08-21T13:47:02;3.17;;;1.77;;
22826;SDS011;11580;52.562;13.418;2023-08-21T13:49:29;2.00;;;1.27;;
22826;SDS011;11580;52.562;13.418;2023-08-21T13:51:57;1.83;;;1.53;;
22826;SDS011;11580;52.562;13.418;2023-08-21T13:54:24;2.00;;;1.60;;
22826;SDS011;11580;52.562;13.418;2023-08-21T13:56:51;1.80;;;1.40;;
22826;SDS011;11580;52.562;13.418;2023-08-21T13:59:18;2.03;;;1.47;;
22826;SDS011;11580;52.562;13.418;2023-08-21T14:01:45;2.43;;;1.80;;
22826;SDS011;11580;52.562;13.418;2023-08-21T14:04:14;1.93;;;1.40;;
22826;SDS011;11580;52.562;13.418;2023-08-21T14:06:41;2.90;;;1.20;;
22826;SDS011;11580;52.562;13.418;2023-08-21T14:09:09;1.40;;;1.30;;
22826;SDS011;11580;52.562;13.418;2023-08-21T14:11:36;1.50;;;1.40;;
22826;SDS011;11580;52.562;13.418;2023-08-21T14:14:03;1.93;;;1.80;;
22826;SDS011;11580;52.562;13.418;2023-08-21T14:16:30;1.80;;;1.50;;
22826;SDS011;11580;52.562;13.418;2023-08-21T14:18:57;1.47;;;1.37;;
22826;SDS011;11580;52.562;13.418;2023-08-21T14:21:26;3.23;;;1.87;;
22826;SDS011;11580;52.562;13.418;2023-08-21T14:23:53;1.33;;;1.23;;
22826;SDS011;11580;52.562;13.418;2023-08-21T14:26:20;1.77;;;1.20;;
22826;SDS011;11580;52.562;13.418;2023-08-21T14:28:47;1.20;;;1.00;;
22826;SDS011;11580;52.562;13.418;2023-08-21T14:31:16;1.80;;;1.27;;
22826;SDS011;11580;52.562;13.418;2023-08-21T14:33:43;1.23;;;0.90;;
22826;SDS011;11580;52.562;13.418;2023-08-21T14:36:10;1.33;;;1.17;;
22826;SDS011;11580;52.562;13.418;2023-08-21T14:38:39;1.27;;;1.10;;
22826;SDS011;11580;52.562;13.418;2023-08-21T14:41:06;0.90;;;0.80;;